Time;durP1;ratioP1;P1;durP2;ratioP2;P2;SDS_P1;SDS_P2;PMS_P1;PMS_P2;Temp;Humidity;BMP_temperature;BMP_pressure;BME280_temperature;BME280_humidity;BME280_pressure;Samples;Min_cycle;Max_cycle;Signal;HPM_P1;HPM_P2
2022/09/11 00:01:36;;;;;;;18.20;13.90;;;12.40;99.90;;;;;;5057097;28;20021;-77
2022/09/11 00:04:02;;;;;;;18.23;12.32;;;12.30;99.90;;;;;;5057166;28;20024;-77
2022/09/11 00:06:28;;;;;;;19.48;13.70;;;12.30;99.90;;;;;;5057014;28;20032;-77
2022/09/11 00:08:59;;;;;;;24.25;15.05;;;12.30;99.90;;;;;;5056846;28;20025;-77
2022/09/11 00:11:28;;;;;;;18.95;14.07;;;12.20;99.90;;;;;;5056927;28;20159;-77
2022/09/11 00:13:55;;;;;;;21.13;13.98;;;12.30;99.90;;;;;;5056942;28;20444;-77
2022/09/11 00:16:27;;;;;;;19.25;14.15;;;12.30;99.90;;;;;;5057147;28;20025;-77
2022/09/11 00:18:54;;;;;;;20.98;13.68;;;12.20;99.90;;;;;;5053771;28;20505;-77
2022/09/11 00:21:20;;;;;;;23.88;14.02;;;12.20;99.90;;;;;;5036436;28;20038;-77
2022/09/11 00:23:48;;;;;;;20.30;13.95;;;12.30;99.90;;;;;;5036737;28;20025;-77
2022/09/11 00:26:17;;;;;;;21.15;14.38;;;12.20;99.90;;;;;;5037040;28;20440;-77
2022/09/11 00:28:44;;;;;;;17.05;11.73;;;12.10;99.90;;;;;;5036553;28;20452;-77
2022/09/11 00:31:13;;;;;;;18.77;12.85;;;12.20;99.90;;;;;;5036747;28;20104;-77
2022/09/11 00:33:40;;;;;;;17.02;12.02;;;12.10;99.90;;;;;;5036129;28;20054;-77
2022/09/11 00:36:11;;;;;;;19.77;11.23;;;12.10;99.90;;;;;;5036834;28;20496;-77
2022/09/11 00:38:38;;;;;;;19.58;11.50;;;12.10;99.90;;;;;;5036572;28;20100;-77
2022/09/11 00:41:07;;;;;;;19.13;12.32;;;12.10;99.90;;;;;;5036690;28;20671;-78
2022/09/11 00:44:06;;;;;;;16.58;11.73;;;12.00;99.90;;;;;;5040523;28;20459;-77
2022/09/11 00:46:58;;;;;;;14.65;9.75;;;12.00;99.90;;;;;;5055236;28;20037;-77
2022/09/11 00:49:39;;;;;;;15.93;11.00;;;11.90;99.90;;;;;;5035668;28;20041;-77
2022/09/11 00:52:07;;;;;;;15.18;10.68;;;11.90;99.90;;;;;;5036224;28;20029;-77
2022/09/11 00:54:44;;;;;;;14.45;9.55;;;11.80;99.90;;;;;;5036000;28;20103;-77
2022/09/11 00:57:09;;;;;;;13.52;9.77;;;11.80;99.90;;;;;;5036212;28;20107;-77
2022/09/11 00:59:38;;;;;;;13.82;9.27;;;11.80;99.90;;;;;;5038730;28;21486;-78
2022/09/11 01:02:06;;;;;;;14.48;10.35;;;11.70;99.90;;;;;;5056005;28;20230;-77
2022/09/11 01:04:34;;;;;;;12.20;9.48;;;11.70;99.90;;;;;;5056083;28;20039;-78
2022/09/11 01:07:01;;;;;;;13.75;9.75;;;11.60;99.90;;;;;;5055943;28;20517;-78
2022/09/11 01:09:29;;;;;;;16.60;10.80;;;11.60;99.90;;;;;;5055031;28;20029;-78
2022/09/11 01:12:01;;;;;;;13.07;9.70;;;11.60;99.90;;;;;;5055860;28;20025;-77
2022/09/11 01:14:59;;;;;;;12.55;9.70;;;11.60;99.90;;;;;;5056057;28;20040;-77
2022/09/11 01:17:39;;;;;;;14.63;11.13;;;11.50;99.90;;;;;;5055934;28;20024;-77
2022/09/11 01:20:23;;;;;;;;;;;11.50;99.90;;;;;;5056261;28;20025;-77
2022/09/11 01:23:18;;;;;;;13.63;9.48;;;11.50;99.90;;;;;;5055539;28;19912;-77
2022/09/11 01:25:57;;;;;;;16.17;10.30;;;11.40;99.90;;;;;;5055386;28;20037;-78
2022/09/11 01:28:34;;;;;;;15.20;10.27;;;11.50;99.90;;;;;;5055759;28;20037;-77
2022/09/11 01:31:07;;;;;;;14.88;10.60;;;11.50;99.90;;;;;;5055606;28;20037;-77
2022/09/11 01:33:43;;;;;;;15.10;10.50;;;11.50;99.90;;;;;;5055067;28;20472;-77
2022/09/11 01:36:33;;;;;;;15.52;11.15;;;11.40;99.90;;;;;;5054113;28;20429;-77
2022/09/11 01:39:01;;;;;;;16.07;10.47;;;11.50;99.90;;;;;;5035730;28;20096;-77
2022/09/11 01:41:48;;;;;;;13.93;10.63;;;11.50;99.90;;;;;;5037983;28;20255;-77
2022/09/11 01:44:33;;;;;;;15.02;10.52;;;11.40;99.90;;;;;;5053820;28;20515;-77
2022/09/11 01:47:01;;;;;;;16.55;10.50;;;11.40;99.90;;;;;;5055225;28;20490;-77
2022/09/11 01:49:41;;;;;;;15.48;10.43;;;11.40;99.90;;;;;;5035146;28;20461;-77
2022/09/11 01:52:14;;;;;;;18.07;10.53;;;11.40;99.90;;;;;;5035352;28;20108;-77
2022/09/11 01:54:59;;;;;;;15.38;10.82;;;11.40;99.90;;;;;;5034778;28;20259;-77
2022/09/11 01:57:40;;;;;;;14.80;10.25;;;11.40;99.90;;;;;;5035168;28;20048;-77
2022/09/11 02:00:10;;;;;;;15.02;10.38;;;11.30;99.90;;;;;;5034953;28;20026;-77
2022/09/11 02:02:42;;;;;;;18.80;11.32;;;11.40;99.90;;;;;;5035017;28;20032;-77
2022/09/11 02:05:09;;;;;;;15.75;11.10;;;11.40;99.90;;;;;;5035030;28;20487;-77
2022/09/11 02:07:40;;;;;;;14.65;10.15;;;11.30;99.90;;;;;;5034858;28;20049;-77
2022/09/11 02:10:13;;;;;;;18.17;10.38;;;11.30;99.90;;;;;;5034855;28;20025;-77
2022/09/11 02:12:45;;;;;;;15.00;10.07;;;11.30;99.90;;;;;;5035066;28;20025;-77
2022/09/11 02:15:14;;;;;;;17.92;10.85;;;11.20;99.90;;;;;;5034682;28;20026;-77
2022/09/11 02:17:51;;;;;;;17.03;10.27;;;11.20;99.90;;;;;;5034781;28;20017;-77
2022/09/11 02:20:18;;;;;;;14.98;10.60;;;11.20;99.90;;;;;;5044094;28;20025;-78
2022/09/11 02:22:44;;;;;;;14.43;10.45;;;11.30;99.90;;;;;;5054542;28;20349;-78
2022/09/11 02:25:10;;;;;;;18.65;10.30;;;11.20;99.90;;;;;;5054756;28;20443;-77
2022/09/11 02:27:35;;;;;;;14.95;10.27;;;11.20;99.90;;;;;;5054565;28;20017;-77
2022/09/11 02:30:01;;;;;;;15.43;9.88;;;11.20;99.90;;;;;;5054360;28;20024;-77
2022/09/11 02:32:29;;;;;;;18.42;11.13;;;11.30;99.90;;;;;;5054093;28;20112;-77
2022/09/11 02:34:55;;;;;;;21.77;11.18;;;11.30;99.90;;;;;;5054235;28;20025;-77
2022/09/11 02:37:26;;;;;;;17.77;11.50;;;11.30;99.90;;;;;;5054281;28;20027;-77
2022/09/11 02:40:13;;;;;;;16.67;11.05;;;11.20;99.90;;;;;;5054330;28;20533;-77
2022/09/11 02:43:00;;;;;;;15.98;11.15;;;11.20;99.90;;;;;;5034442;28;20025;-77
2022/09/11 02:45:53;;;;;;;18.02;11.20;;;11.20;99.90;;;;;;5050158;28;20135;-77
2022/09/11 02:48:24;;;;;;;14.88;10.20;;;11.20;99.90;;;;;;5054383;28;20079;-77
2022/09/11 02:50:54;;;;;;;14.55;10.27;;;11.20;99.90;;;;;;5054237;28;20422;-77
2022/09/11 02:53:41;;;;;;;13.20;9.75;;;11.20;99.90;;;;;;5053764;28;20029;-77
2022/09/11 02:56:13;;;;;;;11.77;9.23;;;11.20;99.90;;;;;;5052657;28;20376;-77
2022/09/11 02:58:56;;;;;;;11.05;8.30;;;11.10;99.90;;;;;;5053557;28;20116;-77
2022/09/11 03:01:23;;;;;;;13.98;8.63;;;11.10;99.90;;;;;;5053850;28;20104;-77
2022/09/11 03:03:49;;;;;;;14.77;9.25;;;11.20;99.90;;;;;;5053809;28;20027;-77
2022/09/11 03:06:21;;;;;;;11.52;8.38;;;11.20;99.90;;;;;;5053688;28;20108;-77
2022/09/11 03:08:47;;;;;;;11.38;8.90;;;11.20;99.90;;;;;;5052424;28;20032;-77
2022/09/11 03:11:16;;;;;;;14.30;8.52;;;11.20;99.90;;;;;;5053488;28;20036;-77
2022/09/11 03:13:42;;;;;;;14.80;8.32;;;11.20;99.90;;;;;;5053519;28;20052;-77
2022/09/11 03:16:08;;;;;;;13.73;8.73;;;11.20;99.90;;;;;;5053658;28;20475;-77
2022/09/11 03:18:34;;;;;;;13.75;8.77;;;11.10;99.90;;;;;;5053408;28;20036;-77
2022/09/11 03:21:00;;;;;;;14.07;9.02;;;11.30;99.90;;;;;;5053460;28;20021;-77
2022/09/11 03:23:26;;;;;;;15.30;8.70;;;11.40;99.90;;;;;;5053473;28;20052;-77
2022/09/11 03:25:53;;;;;;;14.80;9.35;;;11.50;99.90;;;;;;5053501;28;20064;-77
2022/09/11 03:28:19;;;;;;;17.60;8.82;;;11.40;99.90;;;;;;5053666;28;20049;-77
2022/09/11 03:30:44;;;;;;;16.05;9.48;;;11.50;99.90;;;;;;5053351;28;20091;-77
2022/09/11 03:33:10;;;;;;;16.02;9.30;;;11.50;99.90;;;;;;5052752;28;20056;-77
2022/09/11 03:35:37;;;;;;;15.48;9.50;;;11.50;99.90;;;;;;5053205;28;20013;-77
2022/09/11 03:38:02;;;;;;;15.15;9.43;;;11.50;99.90;;;;;;5053798;28;20017;-77
2022/09/11 03:40:29;;;;;;;14.90;9.30;;;11.50;99.90;;;;;;5053374;28;20021;-77
2022/09/11 03:42:54;;;;;;;14.50;8.75;;;11.50;99.90;;;;;;5053371;28;20431;-77
2022/09/11 03:45:20;;;;;;;14.15;9.43;;;11.50;99.90;;;;;;5053478;28;20519;-77
2022/09/11 03:47:45;;;;;;;15.30;8.88;;;11.50;99.90;;;;;;5053453;28;20017;-78
2022/09/11 03:50:12;;;;;;;17.40;9.25;;;11.50;99.90;;;;;;5053158;28;20452;-77
2022/09/11 03:52:38;;;;;;;17.05;9.43;;;11.50;99.90;;;;;;5053199;28;20040;-77
2022/09/11 03:55:05;;;;;;;15.48;9.15;;;11.50;99.90;;;;;;5053511;28;20049;-77
2022/09/11 03:57:34;;;;;;;16.02;11.13;;;11.50;99.90;;;;;;5053158;28;20467;-77
2022/09/11 04:00:02;;;;;;;17.50;10.33;;;11.50;99.90;;;;;;5053262;28;20028;-77
2022/09/11 04:02:27;;;;;;;19.13;9.75;;;11.50;99.90;;;;;;5053597;28;20078;-77
2022/09/11 04:04:53;;;;;;;16.52;10.05;;;11.40;99.90;;;;;;5053073;28;20340;-77
2022/09/11 04:07:18;;;;;;;16.13;10.13;;;11.40;99.90;;;;;;5053091;28;20021;-77
2022/09/11 04:09:45;;;;;;;16.38;10.27;;;11.40;99.90;;;;;;5053231;28;20029;-77
2022/09/11 04:12:11;;;;;;;17.38;10.95;;;11.40;99.90;;;;;;5052895;28;20059;-77
2022/09/11 04:14:37;;;;;;;16.45;11.10;;;11.50;99.90;;;;;;5053365;28;20100;-77
2022/09/11 04:17:03;;;;;;;20.83;12.52;;;11.40;99.90;;;;;;5053379;28;20099;-77
2022/09/11 04:19:29;;;;;;;21.50;13.40;;;11.40;99.90;;;;;;5053385;28;20021;-77
2022/09/11 04:21:54;;;;;;;22.17;12.75;;;11.40;99.90;;;;;;5053115;28;20357;-77
2022/09/11 04:24:20;;;;;;;19.30;11.77;;;11.40;99.90;;;;;;5053029;28;20099;-78
2022/09/11 04:26:46;;;;;;;21.02;12.32;;;11.40;99.90;;;;;;5053363;28;20021;-77
2022/09/11 04:29:12;;;;;;;20.27;12.63;;;11.40;99.90;;;;;;5053041;28;20025;-78
2022/09/11 04:31:38;;;;;;;23.15;13.65;;;11.40;99.90;;;;;;5052877;28;20120;-77
2022/09/11 04:34:04;;;;;;;25.60;13.05;;;11.30;99.90;;;;;;5052310;28;20052;-78
2022/09/11 04:36:29;;;;;;;22.27;12.70;;;11.40;99.90;;;;;;5052734;28;20021;-77
2022/09/11 04:38:57;;;;;;;22.52;13.68;;;11.40;99.90;;;;;;5052941;28;20029;-77
2022/09/11 04:41:23;;;;;;;20.58;13.38;;;11.40;99.90;;;;;;5052796;28;20387;-77
2022/09/11 04:43:54;;;;;;;27.83;14.00;;;11.40;99.90;;;;;;5053007;28;20029;-77
2022/09/11 04:46:19;;;;;;;24.75;13.57;;;11.40;99.90;;;;;;5056676;28;20021;-77
2022/09/11 04:48:54;;;;;;;22.27;13.68;;;11.40;99.90;;;;;;5056263;28;20108;-78
2022/09/11 04:51:25;;;;;;;20.60;13.65;;;11.40;99.90;;;;;;5056329;28;20459;-77
2022/09/11 04:53:56;;;;;;;27.15;14.10;;;11.40;99.90;;;;;;5056002;28;20021;-77
2022/09/11 04:56:23;;;;;;;23.52;13.93;;;11.50;99.90;;;;;;5056084;28;20021;-77
2022/09/11 04:58:57;;;;;;;27.20;14.40;;;11.60;99.90;;;;;;5055870;28;20032;-77
2022/09/11 05:01:25;;;;;;;20.20;13.73;;;11.70;99.90;;;;;;5056033;28;20368;-77
2022/09/11 05:03:51;;;;;;;21.38;13.10;;;11.60;99.90;;;;;;5056084;28;20021;-77
2022/09/11 05:06:17;;;;;;;21.60;14.00;;;11.50;99.90;;;;;;5056154;28;20024;-77
2022/09/11 05:08:44;;;;;;;24.67;13.20;;;11.50;99.90;;;;;;5055914;28;20021;-77
2022/09/11 05:11:15;;;;;;;20.85;12.85;;;11.40;99.90;;;;;;5055837;28;20105;-77
2022/09/11 05:13:41;;;;;;;22.88;12.32;;;11.60;99.90;;;;;;5055909;28;20112;-77
2022/09/11 05:16:14;;;;;;;24.95;13.05;;;11.50;99.90;;;;;;5055981;28;20064;-77
2022/09/11 05:18:43;;;;;;;20.15;13.15;;;11.50;99.90;;;;;;5055933;28;20082;-77
2022/09/11 05:21:12;;;;;;;23.45;12.60;;;11.50;99.90;;;;;;5056267;28;20021;-77
2022/09/11 05:23:38;;;;;;;18.27;12.48;;;11.60;99.90;;;;;;5055860;28;20053;-77
2022/09/11 05:26:05;;;;;;;23.33;13.20;;;11.60;99.90;;;;;;5055935;28;20017;-77
2022/09/11 05:28:33;;;;;;;26.38;14.35;;;11.70;99.90;;;;;;5055354;28;20028;-77
2022/09/11 05:30:59;;;;;;;24.25;13.38;;;11.80;99.90;;;;;;5055423;28;20522;-77
2022/09/11 05:33:26;;;;;;;25.15;14.02;;;11.90;99.90;;;;;;5055094;28;20080;-77
2022/09/11 05:35:53;;;;;;;23.20;13.77;;;12.00;99.90;;;;;;5055373;28;20032;-77
2022/09/11 05:38:20;;;;;;;21.50;13.80;;;12.30;99.90;;;;;;5055483;28;20039;-77
2022/09/11 05:40:48;;;;;;;21.38;13.52;;;12.30;99.90;;;;;;5055466;28;20104;-77
2022/09/11 05:43:14;;;;;;;21.90;13.57;;;12.30;99.90;;;;;;5055386;28;20076;-77
2022/09/11 05:45:41;;;;;;;18.23;11.80;;;12.10;99.90;;;;;;5055285;28;20021;-77
2022/09/11 05:48:07;;;;;;;20.42;13.65;;;12.10;99.90;;;;;;5055782;28;20028;-77
2022/09/11 05:50:33;;;;;;;18.05;12.38;;;12.10;99.90;;;;;;5055629;28;20033;-77
2022/09/11 05:52:59;;;;;;;18.13;12.57;;;12.10;99.90;;;;;;5054872;28;20100;-77
2022/09/11 05:55:24;;;;;;;18.35;12.65;;;12.10;99.90;;;;;;5054752;28;20156;-77
2022/09/11 05:57:53;;;;;;;22.88;12.68;;;12.30;99.90;;;;;;5054799;28;20033;-77
2022/09/11 06:00:20;;;;;;;20.73;11.65;;;12.40;99.90;;;;;;5043375;28;20033;-77
2022/09/11 06:02:47;;;;;;;21.90;13.32;;;12.50;99.90;;;;;;5034787;28;20025;-77
2022/09/11 06:05:14;;;;;;;22.77;12.20;;;12.70;99.90;;;;;;5035294;28;20017;-77
2022/09/11 06:07:41;;;;;;;20.98;11.60;;;12.80;99.90;;;;;;5034869;28;20080;-77
2022/09/11 06:10:07;;;;;;;17.50;11.50;;;12.90;99.90;;;;;;5033478;28;20708;-77
2022/09/11 06:12:33;;;;;;;15.15;10.35;;;12.80;99.90;;;;;;5038922;28;20083;-77
2022/09/11 06:15:01;;;;;;;18.10;11.07;;;12.90;99.90;;;;;;5034870;28;20021;-77
2022/09/11 06:17:27;;;;;;;16.80;11.38;;;13.00;99.90;;;;;;5034739;28;20021;-77
2022/09/11 06:19:53;;;;;;;16.80;10.48;;;13.00;99.90;;;;;;5034916;28;20031;-77
2022/09/11 06:22:20;;;;;;;14.35;10.93;;;13.10;99.90;;;;;;5049643;28;20025;-77
2022/09/11 06:24:47;;;;;;;13.32;9.85;;;13.40;99.90;;;;;;5054739;28;20019;-77
2022/09/11 06:27:14;;;;;;;16.50;11.80;;;13.40;99.90;;;;;;5054885;28;20020;-77
2022/09/11 06:29:39;;;;;;;21.08;13.23;;;13.70;99.90;;;;;;5053878;28;20021;-77
2022/09/11 06:32:05;;;;;;;28.73;14.48;;;13.60;99.90;;;;;;5054484;28;20107;-77
2022/09/11 06:34:31;;;;;;;26.50;14.30;;;13.90;99.90;;;;;;5053827;28;20498;-77
2022/09/11 06:36:57;;;;;;;24.15;15.02;;;13.90;99.90;;;;;;5054438;28;20025;-77
2022/09/11 06:39:22;;;;;;;24.00;15.18;;;14.10;99.90;;;;;;5054279;28;20060;-77
2022/09/11 06:41:54;;;;;;;27.52;16.55;;;14.20;99.90;;;;;;5054209;28;20021;-77
2022/09/11 06:44:19;;;;;;;25.95;15.55;;;14.30;99.90;;;;;;5054039;28;20043;-77
2022/09/11 06:46:46;;;;;;;28.20;16.38;;;14.60;99.90;;;;;;5053773;28;20028;-77
2022/09/11 06:49:12;;;;;;;28.52;15.82;;;14.70;99.90;;;;;;5054189;28;20033;-77
2022/09/11 06:51:38;;;;;;;35.70;17.95;;;14.90;99.90;;;;;;5054338;28;20048;-77
2022/09/11 06:54:04;;;;;;;44.45;23.17;;;15.90;99.90;;;;;;5050725;28;20049;-77
2022/09/11 06:56:33;;;;;;;34.58;20.77;;;20.70;99.90;;;;;;5040067;28;20070;-77
2022/09/11 06:58:59;;;;;;;30.63;19.10;;;24.00;99.90;;;;;;5034871;28;20071;-77
2022/09/11 07:01:27;;;;;;;27.83;19.80;;;25.90;99.90;;;;;;5034043;28;20068;-77
2022/09/11 07:03:53;;;;;;;20.38;16.23;;;27.40;99.90;;;;;;5034193;28;20429;-77
2022/09/11 07:06:22;;;;;;;17.65;14.60;;;29.20;99.90;;;;;;5032595;28;20499;-77
2022/09/11 07:09:00;;;;;;;16.75;13.82;;;31.40;99.90;;;;;;5033278;28;20025;-77
2022/09/11 07:11:26;;;;;;;13.10;11.70;;;33.20;88.20;;;;;;5037549;28;20035;-77
2022/09/11 07:13:52;;;;;;;12.65;11.15;;;34.00;35.80;;;;;;5053434;28;20021;-77
2022/09/11 07:16:18;;;;;;;13.32;10.20;;;35.30;14.70;;;;;;5053452;28;20013;-77
2022/09/11 07:18:46;;;;;;;10.27;9.15;;;36.60;3.40;;;;;;5053473;28;20021;-78
2022/09/11 07:21:23;;;;;;;10.93;8.77;;;36.80;1.00;;;;;;5036727;28;20109;-77
2022/09/11 07:23:53;;;;;;;9.90;8.68;;;38.10;1.00;;;;;;5044706;28;20091;-77
2022/09/11 07:26:19;;;;;;;9.07;7.93;;;39.20;1.00;;;;;;5042541;28;20104;-77
2022/09/11 07:28:47;;;;;;;9.07;7.85;;;39.40;1.00;;;;;;5033769;28;20041;-78
2022/09/11 07:31:16;;;;;;;7.78;7.07;;;39.90;1.00;;;;;;5033785;28;20022;-77
2022/09/11 07:33:44;;;;;;;9.25;7.15;;;40.10;1.00;;;;;;5036112;28;20139;-77
2022/09/11 07:36:16;;;;;;;8.50;7.32;;;40.70;1.00;;;;;;5048527;28;20025;-78
2022/09/11 07:38:44;;;;;;;6.22;5.60;;;40.50;1.00;;;;;;5055153;28;20025;-78
2022/09/11 07:41:12;;;;;;;5.63;5.13;;;41.00;1.00;;;;;;5049393;28;20025;-78
2022/09/11 07:43:39;;;;;;;5.20;4.70;;;41.70;1.00;;;;;;5053888;28;20579;-78
2022/09/11 07:46:06;;;;;;;5.60;5.10;;;41.90;1.00;;;;;;5033963;28;20101;-78
2022/09/11 07:48:31;;;;;;;6.25;5.65;;;41.50;1.00;;;;;;5033737;28;20037;-77
2022/09/11 07:51:01;;;;;;;4.95;4.45;;;41.90;1.00;;;;;;5033472;28;20029;-78
2022/09/11 07:53:27;;;;;;;5.65;4.50;;;42.20;1.00;;;;;;5033594;28;20048;-78
2022/09/11 07:55:53;;;;;;;4.90;4.38;;;42.50;1.00;;;;;;5033139;28;20025;-78
2022/09/11 07:58:19;;;;;;;5.10;4.70;;;42.10;1.00;;;;;;5033288;28;20025;-78
2022/09/11 08:00:44;;;;;;;4.65;4.25;;;42.10;1.00;;;;;;5033175;28;20383;-78
2022/09/11 08:03:10;;;;;;;3.83;3.53;;;43.10;1.00;;;;;;5035975;28;20029;-78
2022/09/11 08:05:35;;;;;;;3.83;3.42;;;42.30;1.00;;;;;;5053266;28;20021;-78
2022/09/11 08:08:01;;;;;;;3.95;3.60;;;41.90;1.00;;;;;;5053066;28;20404;-78
2022/09/11 08:10:27;;;;;;;4.05;3.35;;;41.30;1.00;;;;;;5052988;28;20025;-78
2022/09/11 08:12:53;;;;;;;3.65;2.90;;;43.40;1.00;;;;;;5053106;28;20041;-78
2022/09/11 08:15:20;;;;;;;5.32;3.10;;;43.90;1.00;;;;;;5053259;28;20018;-78
2022/09/11 08:17:46;;;;;;;4.43;3.42;;;43.70;1.00;;;;;;5053794;28;20025;-78
2022/09/11 08:20:12;;;;;;;3.42;3.13;;;40.70;1.00;;;;;;5057023;28;20024;-76
2022/09/11 08:22:38;;;;;;;4.53;3.42;;;39.40;1.00;;;;;;5057377;28;20021;-76
2022/09/11 08:25:04;;;;;;;4.35;3.95;;;41.10;1.00;;;;;;5057892;28;20052;-76
2022/09/11 08:27:30;;;;;;;4.32;3.35;;;41.80;1.00;;;;;;5058153;28;20077;-76
2022/09/11 08:29:57;;;;;;;3.45;3.15;;;41.10;1.00;;;;;;5060364;28;20021;-77
2022/09/11 08:32:23;;;;;;;4.65;3.42;;;43.60;1.00;;;;;;5058315;28;20052;-77
2022/09/11 08:34:49;;;;;;;3.70;3.40;;;44.10;1.00;;;;;;5060971;28;20025;-77
2022/09/11 08:37:14;;;;;;;3.58;3.22;;;44.80;1.00;;;;;;5063546;28;20039;-77
2022/09/11 08:39:40;;;;;;;3.25;3.05;;;43.00;1.00;;;;;;5054421;28;20037;-77
2022/09/11 08:42:11;;;;;;;2.60;2.40;;;39.90;1.00;;;;;;5059296;28;20061;-77
2022/09/11 08:44:48;;;;;;;3.42;2.80;;;35.70;1.00;;;;;;5054977;28;20030;-77
2022/09/11 08:47:23;;;;;;;5.35;3.20;;;33.10;1.00;;;;;;5061913;28;20022;-77
2022/09/11 08:49:56;;;;;;;3.35;3.05;;;31.30;1.00;;;;;;5068154;28;20033;-76
2022/09/11 08:52:21;;;;;;;3.05;2.83;;;35.30;1.00;;;;;;5064090;28;20036;-77
2022/09/11 08:54:47;;;;;;;2.55;2.33;;;38.40;1.00;;;;;;5042065;28;20026;-76
2022/09/11 08:57:36;;;;;;;3.20;2.90;;;40.60;1.00;;;;;;5047375;28;20021;-77
2022/09/11 09:00:14;;;;;;;3.25;2.58;;;35.80;1.00;;;;;;5062918;28;20027;-77
2022/09/11 09:02:55;;;;;;;4.45;2.45;;;33.00;1.00;;;;;;5064828;28;20060;-77
2022/09/11 09:05:44;;;;;;;2.28;1.83;;;30.90;1.00;;;;;;5045992;28;20084;-76
2022/09/11 09:08:43;;;;;;;2.53;2.00;;;33.60;1.00;;;;;;5053517;28;20474;-76
2022/09/11 09:11:30;;;;;;;3.10;2.00;;;37.50;1.00;;;;;;5064850;28;20088;-76
2022/09/11 09:14:30;;;;;;;2.80;2.20;;;34.70;1.00;;;;;;5057235;28;20040;-76
2022/09/11 09:17:18;;;;;;;2.30;2.10;;;36.60;1.00;;;;;;5064348;28;20113;-77
2022/09/11 09:20:00;;;;;;;3.45;2.38;;;34.00;1.00;;;;;;5062589;28;20040;-77
2022/09/11 09:22:55;;;;;;;2.65;2.42;;;35.40;1.00;;;;;;5062015;28;20063;-76
2022/09/11 09:25:22;;;;;;;3.17;2.78;;;37.90;1.00;;;;;;5059282;28;20044;-76
2022/09/11 09:27:52;;;;;;;5.13;2.63;;;39.10;1.00;;;;;;5060410;28;20083;-76
2022/09/11 09:30:26;;;;;;;3.25;2.75;;;40.00;1.00;;;;;;5051470;28;20033;-76
2022/09/11 09:33:04;;;;;;;5.07;3.97;;;42.50;1.00;;;;;;5042348;28;20077;-76
2022/09/11 09:35:40;;;;;;;5.50;4.18;;;42.30;1.00;;;;;;5050318;28;20048;-77
2022/09/11 09:38:18;;;;;;;4.70;3.90;;;37.20;1.00;;;;;;5039358;28;20034;-77
2022/09/11 09:41:10;;;;;;;4.53;3.88;;;33.20;1.00;;;;;;5055082;28;20075;-76
2022/09/11 09:43:47;;;;;;;3.85;3.38;;;31.10;1.00;;;;;;5055121;28;20025;-77
2022/09/11 09:46:40;;;;;;;5.85;4.22;;;30.10;1.00;;;;;;5054839;28;20471;-76
2022/09/11 09:49:09;;;;;;;6.43;3.92;;;29.50;1.00;;;;;;5051615;28;20021;-79
2022/09/11 09:51:35;;;;;;;4.50;4.03;;;28.60;1.00;;;;;;5056178;28;20063;-79
2022/09/11 09:54:01;;;;;;;4.88;4.30;;;28.20;1.00;;;;;;5054959;28;20027;-79
2022/09/11 09:56:29;;;;;;;4.40;3.70;;;27.90;1.00;;;;;;5054927;28;20021;-78
2022/09/11 09:59:02;;;;;;;4.97;4.38;;;27.60;1.00;;;;;;5056750;28;20028;-78
2022/09/11 10:01:48;;;;;;;4.57;3.78;;;27.70;1.00;;;;;;5034366;28;20030;-78
2022/09/11 10:04:16;;;;;;;4.32;3.92;;;27.70;1.00;;;;;;5037788;28;20029;-78
2022/09/11 10:06:44;;;;;;;4.32;3.75;;;27.40;1.00;;;;;;5055995;28;20025;-78
2022/09/11 10:09:24;;;;;;;4.63;3.60;;;27.30;1.00;;;;;;5043010;28;20032;-78
2022/09/11 10:12:00;;;;;;;3.63;3.33;;;33.00;1.00;;;;;;5055147;28;20117;-78
2022/09/11 10:14:26;;;;;;;3.22;2.92;;;36.10;1.00;;;;;;5055750;28;20595;-78
2022/09/11 10:16:53;;;;;;;4.05;3.42;;;32.60;1.00;;;;;;5048565;28;20053;-78
2022/09/11 10:19:41;;;;;;;3.70;2.97;;;30.80;1.00;;;;;;5051541;28;20522;-78
2022/09/11 10:22:26;;;;;;;2.88;2.60;;;29.10;1.00;;;;;;5054587;28;20459;-78
2022/09/11 10:25:12;;;;;;;4.40;2.50;;;32.90;1.00;;;;;;5034280;28;20032;-78
2022/09/11 10:28:16;;;;;;;2.50;1.98;;;36.30;1.00;;;;;;5047849;28;20024;-78
2022/09/11 10:31:13;;;;;;;3.65;2.50;;;36.70;1.00;;;;;;5053161;28;20120;-78
2022/09/11 10:33:44;;;;;;;2.70;2.50;;;38.50;1.00;;;;;;5053563;28;20053;-78
2022/09/11 10:36:10;;;;;;;3.15;2.20;;;38.00;1.00;;;;;;5049361;28;20060;-78
2022/09/11 10:38:45;;;;;;;3.65;2.67;;;38.50;1.00;;;;;;5055882;28;20026;-78
2022/09/11 10:41:20;;;;;;;3.53;2.63;;;38.90;1.00;;;;;;5049352;28;20634;-78
2022/09/11 10:44:10;;;;;;;3.22;2.50;;;38.60;1.00;;;;;;5035839;28;20045;-78
2022/09/11 10:46:38;;;;;;;4.50;2.92;;;36.10;1.00;;;;;;5056155;28;20041;-77
2022/09/11 10:49:04;;;;;;;3.38;2.70;;;34.90;1.00;;;;;;5057932;28;20033;-78
2022/09/11 10:51:32;;;;;;;2.92;2.20;;;34.50;1.00;;;;;;5054858;28;20104;-78
2022/09/11 10:54:15;;;;;;;3.03;2.40;;;33.30;1.00;;;;;;5054920;28;20024;-78
2022/09/11 10:56:53;;;;;;;3.42;3.13;;;31.20;1.00;;;;;;5039117;28;20270;-78
2022/09/11 10:59:23;;;;;;;2.25;2.13;;;29.60;1.00;;;;;;5038147;28;20022;-78
2022/09/11 11:01:50;;;;;;;2.60;1.92;;;28.60;1.00;;;;;;5052264;28;20128;-78
2022/09/11 11:04:15;;;;;;;3.13;2.40;;;27.40;1.00;;;;;;5059024;28;20018;-78
2022/09/11 11:07:03;;;;;;;3.60;2.90;;;27.20;1.00;;;;;;5059499;28;20036;-78
2022/09/11 11:09:32;;;;;;;4.80;3.58;;;26.60;1.00;;;;;;5047746;28;20068;-78
2022/09/11 11:12:10;;;;;;;3.60;3.28;;;26.30;1.00;;;;;;5051393;28;20049;-78
2022/09/11 11:15:03;;;;;;;4.38;3.47;;;26.00;1.00;;;;;;5065670;28;20201;-78
2022/09/11 11:17:39;;;;;;;4.68;3.70;;;25.40;1.00;;;;;;5060829;28;20040;-78
2022/09/11 11:20:26;;;;;;;4.10;3.70;;;25.10;1.00;;;;;;5049087;28;20068;-78
2022/09/11 11:23:21;;;;;;;4.47;3.03;;;24.90;1.00;;;;;;5058491;28;20017;-78
2022/09/11 11:26:11;;;;;;;2.80;2.35;;;24.90;1.00;;;;;;5050042;28;20029;-78
2022/09/11 11:29:06;;;;;;;4.70;2.97;;;24.90;1.00;;;;;;5045804;28;20081;-78
2022/09/11 11:32:07;;;;;;;3.47;2.30;;;25.60;1.00;;;;;;5045229;28;20033;-78
2022/09/11 11:34:45;;;;;;;3.40;3.13;;;26.20;1.00;;;;;;5052657;28;20052;-80
2022/09/11 11:37:24;;;;;;;4.90;3.42;;;26.40;1.00;;;;;;5063160;28;20037;-80
2022/09/11 11:40:00;;;;;;;3.92;2.78;;;26.90;1.00;;;;;;5057161;28;20044;-80
2022/09/11 11:42:30;;;;;;;4.82;3.28;;;27.30;1.00;;;;;;5051033;28;20041;-81
2022/09/11 11:45:02;;;;;;;3.92;2.90;;;27.20;1.00;;;;;;5070027;28;20029;-81
2022/09/11 11:47:35;;;;;;;2.53;2.33;;;27.20;1.00;;;;;;5068946;28;20005;-80
2022/09/11 11:50:20;;;;;;;4.43;2.63;;;27.30;1.00;;;;;;5059421;28;20037;-80
2022/09/11 11:53:08;;;;;;;2.50;2.30;;;27.40;1.00;;;;;;5040926;28;20028;-80
2022/09/11 11:55:42;;;;;;;4.55;2.60;;;27.20;1.00;;;;;;5058592;28;20119;-81
2022/09/11 11:58:20;;;;;;;2.40;2.10;;;27.20;1.00;;;;;;5064681;28;20025;-81
2022/09/11 12:00:54;;;;;;;4.03;2.75;;;27.40;1.00;;;;;;5066581;28;20110;-81
2022/09/11 12:03:45;;;;;;;4.85;3.03;;;27.10;1.00;;;;;;5070714;28;20036;-81
2022/09/11 12:06:11;;;;;;;3.85;3.08;;;26.90;1.00;;;;;;5064772;28;20033;-81
2022/09/11 12:08:45;;;;;;;4.63;3.38;;;26.20;1.00;;;;;;5068569;28;20047;-81
2022/09/11 12:11:14;;;;;;;4.50;3.08;;;26.40;1.00;;;;;;5072416;28;20099;-81
2022/09/11 12:13:46;;;;;;;4.38;3.08;;;26.90;1.00;;;;;;5068364;28;20164;-81
2022/09/11 12:16:12;;;;;;;4.70;3.35;;;26.90;1.00;;;;;;5075790;28;20037;-81
2022/09/11 12:18:38;;;;;;;3.83;3.03;;;26.90;1.00;;;;;;5075928;28;20024;-81
2022/09/11 12:21:24;;;;;;;3.22;2.92;;;26.30;1.00;;;;;;5072600;28;20024;-81
2022/09/11 12:23:49;;;;;;;4.13;2.92;;;26.00;1.00;;;;;;5068227;28;20050;-81
2022/09/11 12:26:23;;;;;;;5.22;2.83;;;25.80;1.00;;;;;;5075646;28;20037;-81
2022/09/11 12:29:12;;;;;;;2.85;2.50;;;25.80;1.00;;;;;;5078398;28;20067;-80
2022/09/11 12:31:50;;;;;;;;;;;25.60;1.00;;;;;;5070587;28;20031;-80
2022/09/11 12:34:26;;;;;;;3.15;2.85;;;25.40;1.00;;;;;;5070838;28;20227;-81
2022/09/11 12:36:59;;;;;;;2.90;2.50;;;25.50;1.00;;;;;;5074740;28;20088;-81
2022/09/11 12:39:43;;;;;;;3.45;2.63;;;25.20;1.00;;;;;;5075092;28;20029;-80
2022/09/11 12:42:30;;;;;;;3.22;2.30;;;24.90;1.00;;;;;;5073819;28;20075;-80
2022/09/11 12:44:58;;;;;;;2.40;2.10;;;24.50;1.00;;;;;;5070801;28;20047;-80
2022/09/11 12:47:31;;;;;;;2.40;2.20;;;24.50;1.00;;;;;;5077503;28;20052;-80
2022/09/11 12:50:16;;;;;;;2.70;2.35;;;24.40;1.00;;;;;;5082396;28;20116;-80
2022/09/11 12:52:47;;;;;;;4.05;2.30;;;24.70;1.00;;;;;;5068683;28;20017;-77
2022/09/11 12:55:28;;;;;;;2.65;2.05;;;25.10;1.00;;;;;;5068245;28;20075;-77
2022/09/11 12:57:55;;;;;;;2.78;2.58;;;25.00;1.00;;;;;;5052081;28;20040;-77
2022/09/11 13:00:28;;;;;;;3.47;2.40;;;25.10;1.00;;;;;;5047251;28;20490;-77
2022/09/11 13:02:56;;;;;;;2.85;2.38;;;25.40;1.00;;;;;;5062172;28;20021;-77
2022/09/11 13:05:36;;;;;;;3.05;2.13;;;25.50;1.00;;;;;;5066610;28;20081;-77